Time;durP1;ratioP1;P1;durP2;ratioP2;P2;SDS_P1;SDS_P2;PMS_P1;PMS_P2;Temp;Humidity;BMP_temperature;BMP_pressure;BME280_temperature;BME280_humidity;BME280_pressure;Samples;Min_cycle;Max_cycle;Signal;HPM_P1;HPM_P2
2020/12/31 00:01:24;;;;;;;9.13;3.40;;;;;;;5.85;82.35;99729.00;4880730;29;20404;-67
2020/12/31 00:03:51;;;;;;;10.05;3.20;;;;;;;5.99;82.25;99726.22;4897974;29;20051;-65
2020/12/31 00:06:19;;;;;;;6.63;2.67;;;;;;;6.16;81.40;99716.25;4898169;29;20052;-65
2020/12/31 00:08:46;;;;;;;7.07;2.75;;;;;;;6.18;81.38;99708.56;4897229;29;20057;-65
2020/12/31 00:11:14;;;;;;;6.50;2.40;;;;;;;6.22;81.37;99706.03;4877856;29;20049;-66
2020/12/31 00:13:41;;;;;;;10.50;2.63;;;;;;;6.16;81.99;99694.41;4879777;29;20049;-63
2020/12/31 00:16:08;;;;;;;10.18;3.10;;;;;;;6.27;82.25;99698.50;4897749;29;20059;-65
2020/12/31 00:23:02;;;;;;;7.75;3.00;;;;;;;6.31;81.88;99682.31;4897441;29;20061;-65
2020/12/31 00:25:29;;;;;;;5.10;2.80;;;;;;;6.18;81.79;99686.69;4895368;29;20056;-66
2020/12/31 00:27:56;;;;;;;5.72;2.88;;;;;;;6.23;82.04;99681.09;4897249;29;20055;-64
2020/12/31 00:30:23;;;;;;;7.25;3.33;;;;;;;6.26;82.70;99680.47;4877466;29;20064;-65
2020/12/31 00:32:50;;;;;;;5.45;2.40;;;;;;;6.21;83.04;99680.59;4896283;29;20112;-65
2020/12/31 00:35:24;;;;;;;5.63;2.70;;;;;;;6.29;83.10;99673.59;4897716;29;20049;-64
2020/12/31 00:37:52;;;;;;;7.43;2.50;;;;;;;6.30;83.00;99670.53;4897742;29;20052;-65
2020/12/31 00:40:24;;;;;;;5.13;2.60;;;;;;;6.31;83.39;99668.63;4877818;29;20401;-66
2020/12/31 00:42:51;;;;;;;7.53;2.78;;;;;;;6.51;82.76;99666.19;4888653;29;20056;-65
2020/12/31 00:45:18;;;;;;;5.88;2.30;;;;;;;6.45;82.76;99661.16;4892013;29;20056;-65
2020/12/31 00:47:47;;;;;;;6.43;2.30;;;;;;;6.48;83.10;99658.63;4895551;29;20190;-64
2020/12/31 00:50:17;;;;;;;5.82;2.20;;;;;;;6.45;83.17;99656.47;4895598;29;20060;-65
2020/12/31 00:52:44;;;;;;;5.53;2.33;;;;;;;6.54;82.85;99646.41;4893565;29;20053;-64
2020/12/31 00:55:12;;;;;;;4.57;2.20;;;;;;;6.75;82.06;99647.50;4875373;29;20064;-62
2020/12/31 00:57:39;;;;;;;5.72;2.17;;;;;;;6.70;82.53;99642.16;4893186;29;20049;-64
2020/12/31 01:00:08;;;;;;;3.92;1.90;;;;;;;6.81;81.84;99642.69;4875858;29;20088;-64
2020/12/31 01:02:51;;;;;;;7.25;2.00;;;;;;;6.80;82.43;99644.63;4891147;29;20049;-66
2020/12/31 01:05:19;;;;;;;5.75;1.80;;;;;;;7.02;81.50;99640.22;4875991;29;20057;-64
2020/12/31 01:07:47;;;;;;;5.72;1.98;;;;;;;6.95;81.44;99623.44;4895427;29;20067;-63
2020/12/31 01:10:14;;;;;;;4.05;2.13;;;;;;;6.81;81.77;99629.00;4895837;29;20049;-66
2020/12/31 01:12:40;;;;;;;4.38;1.70;;;;;;;6.93;82.09;99629.22;4893254;29;20057;-65
2020/12/31 01:15:08;;;;;;;4.97;1.80;;;;;;;7.05;81.53;99628.63;4895895;29;20049;-66
2020/12/31 01:17:38;;;;;;;8.88;2.00;;;;;;;7.18;82.25;99622.22;4878394;29;20053;-63
2020/12/31 01:20:08;;;;;;;3.13;1.55;;;;;;;7.15;80.80;99622.88;4897703;29;20064;-65
2020/12/31 01:22:36;;;;;;;4.00;1.75;;;;;;;7.22;80.44;99617.75;4879978;29;20063;-65
2020/12/31 01:25:05;;;;;;;3.30;1.70;;;;;;;7.14;81.36;99615.78;4877027;29;20076;-64
2020/12/31 01:27:37;;;;;;;4.85;1.67;;;;;;;7.14;80.77;99604.81;4878011;29;20060;-65
2020/12/31 01:30:05;;;;;;;5.13;1.60;;;;;;;7.34;80.46;99618.72;4898338;29;20056;-66
2020/12/31 01:32:32;;;;;;;3.55;1.73;;;;;;;7.32;80.33;99614.69;4881782;29;20041;-64
2020/12/31 01:35:00;;;;;;;5.57;1.90;;;;;;;7.30;80.10;99609.56;4901164;29;20053;-64
2020/12/31 01:37:37;;;;;;;4.15;2.00;;;;;;;7.27;80.42;99612.13;4900398;29;20064;-66
2020/12/31 01:40:08;;;;;;;4.90;1.90;;;;;;;7.30;80.85;99617.75;4900676;29;20079;-65
2020/12/31 01:42:35;;;;;;;3.97;1.70;;;;;;;7.39;80.47;99612.31;4881449;29;20049;-64
2020/12/31 01:45:02;;;;;;;4.80;1.77;;;;;;;7.26;81.14;99614.03;4896416;29;20053;-66
2020/12/31 01:47:29;;;;;;;5.13;1.80;;;;;;;7.21;81.56;99605.97;4898024;29;20056;-65
2020/12/31 01:49:57;;;;;;;4.38;1.45;;;;;;;7.40;80.90;99613.91;4880387;29;20057;-67
2020/12/31 01:52:24;;;;;;;4.95;1.75;;;;;;;7.36;80.77;99608.25;4896710;29;20064;-64
2020/12/31 01:54:51;;;;;;;5.78;1.70;;;;;;;7.41;80.75;99605.38;4900405;29;20057;-63
2020/12/31 01:57:18;;;;;;;4.70;1.65;;;;;;;7.32;81.19;99612.75;4864431;29;20053;-65
2020/12/31 01:59:45;;;;;;;4.30;1.80;;;;;;;7.23;81.56;99606.47;4882173;29;20049;-64
2020/12/31 02:02:12;;;;;;;4.68;1.67;;;;;;;7.42;81.39;99601.50;4900312;29;20052;-68
2020/12/31 02:04:39;;;;;;;3.70;1.55;;;;;;;7.29;81.66;99596.97;4900443;29;20060;-64
2020/12/31 02:07:06;;;;;;;4.85;2.13;;;;;;;7.40;81.28;99600.22;4880891;29;20084;-66
2020/12/31 02:09:34;;;;;;;4.95;1.58;;;;;;;7.23;81.77;99600.19;4898073;29;20059;-65
2020/12/31 02:12:04;;;;;;;4.00;1.77;;;;;;;7.26;81.79;99588.56;4899924;29;20061;-67
2020/12/31 02:14:52;;;;;;;5.30;2.13;;;;;;;7.29;81.85;99590.66;4881464;29;20056;-65
2020/12/31 02:17:19;;;;;;;5.10;1.85;;;;;;;7.35;81.45;99586.66;4867912;29;20059;-66
2020/12/31 02:19:46;;;;;;;7.63;1.90;;;;;;;7.27;82.22;99587.47;4867010;29;20053;-65
2020/12/31 02:22:14;;;;;;;5.32;2.10;;;;;;;7.33;81.85;99584.25;4899591;29;20057;-65
2020/12/31 02:24:41;;;;;;;4.72;1.75;;;;;;;7.41;81.66;99588.94;4900135;29;20513;-64
2020/12/31 02:27:09;;;;;;;6.63;1.98;;;;;;;7.34;81.76;99576.84;4899884;29;20057;-66
2020/12/31 02:29:35;;;;;;;5.25;1.95;;;;;;;7.40;82.41;99572.81;4899425;29;20057;-65
2020/12/31 02:32:02;;;;;;;6.30;1.80;;;;;;;7.43;81.70;99580.38;4899333;29;20133;-65
2020/12/31 02:39:11;;;;;;;7.32;2.17;;;;;;;7.41;82.00;99571.72;4899650;29;20056;-66
2020/12/31 02:41:39;;;;;;;6.78;2.40;;;;;;;7.55;81.49;99581.38;4881194;29;20056;-65
2020/12/31 02:44:07;;;;;;;7.97;2.45;;;;;;;7.42;82.13;99576.84;4899063;29;20057;-66
2020/12/31 02:46:35;;;;;;;4.80;1.90;;;;;;;7.53;81.83;99572.66;4898912;29;20080;-65
2020/12/31 02:49:02;;;;;;;4.78;1.90;;;;;;;7.45;82.06;99569.91;4899539;29;20044;-67
2020/12/31 02:51:29;;;;;;;4.38;1.70;;;;;;;7.40;82.37;99567.34;4899746;29;20056;-64
2020/12/31 02:53:56;;;;;;;4.95;1.80;;;;;;;7.52;81.87;99565.59;4878657;29;20398;-64
2020/12/31 02:56:23;;;;;;;6.05;1.98;;;;;;;7.52;82.31;99564.78;4879411;29;20053;-66
2020/12/31 02:58:51;;;;;;;5.75;1.80;;;;;;;7.58;82.00;99552.53;4891525;29;20053;-65
2020/12/31 03:01:19;;;;;;;4.68;1.73;;;;;;;7.50;82.38;99553.31;4878935;29;20064;-65
2020/12/31 03:03:46;;;;;;;4.25;1.60;;;;;;;7.43;82.81;99553.00;4898538;29;20056;-67
2020/12/31 03:06:14;;;;;;;4.70;2.00;;;;;;;7.50;82.33;99554.13;4879249;29;20060;-66
2020/12/31 03:08:42;;;;;;;4.70;1.60;;;;;;;7.45;82.79;99556.22;4898013;29;20056;-66
2020/12/31 03:11:18;;;;;;;3.50;1.50;;;;;;;7.50;82.43;99553.31;4898573;29;20053;-68
2020/12/31 03:13:45;;;;;;;4.35;1.70;;;;;;;7.49;82.79;99551.72;4898535;29;20057;-67
2020/12/31 03:16:13;;;;;;;3.50;1.60;;;;;;;7.51;82.36;99558.50;4878845;29;20045;-66
2020/12/31 03:18:40;;;;;;;5.55;1.58;;;;;;;7.49;82.74;99546.25;4896973;29;20053;-67
2020/12/31 03:21:09;;;;;;;4.00;1.58;;;;;;;7.52;82.33;99545.59;4898839;29;20051;-67
2020/12/31 03:23:37;;;;;;;5.85;1.50;;;;;;;7.48;82.83;99542.69;4864663;29;20071;-67
2020/12/31 03:26:05;;;;;;;3.17;1.20;;;;;;;7.56;82.18;99541.91;4879055;29;20057;-67
2020/12/31 03:28:32;;;;;;;4.65;1.48;;;;;;;7.62;81.96;99535.13;4894456;29;20060;-65
2020/12/31 03:30:59;;;;;;;5.80;1.50;;;;;;;7.65;82.19;99536.41;4894462;29;20053;-66
2020/12/31 03:33:26;;;;;;;3.03;1.38;;;;;;;7.69;82.35;99537.38;4895260;29;20057;-67
2020/12/31 03:35:53;;;;;;;4.05;1.63;;;;;;;7.74;81.54;99521.56;4898418;29;20053;-66
2020/12/31 03:38:21;;;;;;;5.13;1.50;;;;;;;7.72;81.78;99523.03;4897972;29;20060;-66
2020/12/31 03:40:48;;;;;;;3.58;1.50;;;;;;;7.67;81.39;99517.72;4896497;29;20060;-66
2020/12/31 03:43:16;;;;;;;4.05;1.80;;;;;;;7.57;82.00;99527.06;4898224;29;20065;-67
2020/12/31 03:45:43;;;;;;;4.72;1.55;;;;;;;7.66;82.15;99522.38;4898406;29;20049;-66
2020/12/31 03:48:10;;;;;;;4.30;1.80;;;;;;;7.84;81.82;99517.69;4898011;29;20052;-66
2020/12/31 03:50:38;;;;;;;2.95;1.58;;;;;;;7.78;81.57;99513.50;4897696;29;20052;-66
2020/12/31 03:53:05;;;;;;;3.95;1.58;;;;;;;7.65;81.57;99509.78;4897211;29;20068;-66
2020/12/31 03:55:32;;;;;;;4.78;1.73;;;;;;;7.63;82.08;99503.06;4878885;29;20060;-65
2020/12/31 03:58:00;;;;;;;5.03;1.70;;;;;;;7.66;81.89;99502.38;4897813;29;20405;-66
2020/12/31 04:00:27;;;;;;;4.03;1.75;;;;;;;7.86;81.42;99502.53;4897341;29;20056;-66
2020/12/31 04:02:55;;;;;;;5.68;1.98;;;;;;;7.85;80.78;99500.94;4873632;29;20057;-66
2020/12/31 04:05:22;;;;;;;6.82;1.90;;;;;;;7.90;81.18;99488.97;4881165;29;20291;-64
2020/12/31 04:07:48;;;;;;;4.85;1.80;;;;;;;8.07;81.01;99490.88;4880996;29;20060;-64
2020/12/31 04:10:15;;;;;;;3.60;1.88;;;;;;;8.01;80.36;99476.53;4898124;29;20063;-65
2020/12/31 04:12:42;;;;;;;3.58;1.88;;;;;;;7.84;81.08;99484.81;4897494;29;20060;-64
2020/12/31 04:15:09;;;;;;;5.13;2.10;;;;;;;7.81;81.09;99482.72;4897614;29;20057;-65
2020/12/31 04:17:36;;;;;;;6.15;2.22;;;;;;;7.77;81.66;99489.97;4894068;29;20064;-65
2020/12/31 04:20:05;;;;;;;4.95;1.92;;;;;;;7.84;81.40;99479.31;4897635;29;20059;-65
2020/12/31 04:22:32;;;;;;;7.00;2.10;;;;;;;7.88;81.08;99483.00;4878566;29;20072;-64
2020/12/31 04:25:01;;;;;;;4.88;2.20;;;;;;;7.74;81.42;99476.94;4898056;29;20049;-65
2020/12/31 04:27:28;;;;;;;7.80;2.33;;;;;;;7.93;80.91;99480.13;4897224;29;20108;-65
2020/12/31 04:29:55;;;;;;;5.75;2.00;;;;;;;7.91;81.19;99482.38;4897320;29;20049;-65
2020/12/31 04:32:22;;;;;;;5.28;2.25;;;;;;;7.99;80.60;99474.13;4897317;29;20048;-65
2020/12/31 04:39:29;;;;;;;;;;;;;;;7.87;81.06;99463.03;4895311;29;20392;-64
2020/12/31 04:41:57;;;;;;;7.85;2.30;;;;;;;8.07;80.68;99460.72;4897157;29;19950;-65
2020/12/31 04:44:24;;;;;;;9.98;2.38;;;;;;;7.93;80.76;99453.47;4897315;29;20408;-64
2020/12/31 04:46:56;;;;;;;9.68;2.20;;;;;;;8.32;80.01;99465.31;4880731;29;20059;-65
2020/12/31 04:49:28;;;;;;;5.13;1.95;;;;;;;8.13;79.65;99449.25;4897403;29;20053;-65
2020/12/31 04:51:55;;;;;;;7.50;2.10;;;;;;;8.12;80.23;99452.31;4889808;29;20049;-66
2020/12/31 04:54:23;;;;;;;6.75;2.10;;;;;;;7.91;80.60;99453.00;4897467;29;20052;-64
2020/12/31 04:56:50;;;;;;;7.60;2.38;;;;;;;7.98;80.97;99442.34;4879932;29;20492;-65
2020/12/31 04:59:17;;;;;;;7.25;2.60;;;;;;;8.11;80.31;99448.75;4862038;29;20516;-67
2020/12/31 05:01:45;;;;;;;6.88;1.95;;;;;;;7.99;80.45;99446.72;4896257;29;20053;-66
2020/12/31 05:04:15;;;;;;;4.32;1.90;;;;;;;8.25;79.93;99456.81;4898131;29;20079;-65
2020/12/31 05:06:44;;;;;;;7.07;2.08;;;;;;;8.24;79.88;99441.50;4884672;29;20055;-64
2020/12/31 05:09:15;;;;;;;6.57;2.00;;;;;;;8.17;80.09;99435.69;4900750;29;20048;-64
2020/12/31 05:11:46;;;;;;;8.60;2.58;;;;;;;8.07;80.14;99445.09;4883880;29;20061;-66
2020/12/31 05:14:14;;;;;;;8.63;2.08;;;;;;;7.98;80.54;99438.81;4901286;29;20056;-64
2020/12/31 05:16:41;;;;;;;4.93;2.20;;;;;;;8.12;80.30;99442.16;4898690;29;20056;-66
2020/12/31 05:19:21;;;;;;;9.10;2.00;;;;;;;8.09;80.38;99445.53;4900580;29;20400;-64
2020/12/31 05:21:48;;;;;;;;;;;;;;;8.02;80.78;99442.50;4901171;29;20396;-65
2020/12/31 05:24:15;;;;;;;7.85;1.80;;;;;;;8.10;80.61;99438.94;4900839;29;20042;-66
2020/12/31 05:26:42;;;;;;;7.38;2.00;;;;;;;8.02;81.08;99438.97;4899520;29;20393;-66
2020/12/31 05:29:09;;;;;;;7.72;1.83;;;;;;;8.16;80.49;99439.56;4900140;29;20075;-67
2020/12/31 05:31:52;;;;;;;8.70;2.00;;;;;;;8.00;80.54;99442.03;4900051;29;20061;-65
2020/12/31 05:34:29;;;;;;;4.95;1.73;;;;;;;8.09;80.54;99433.78;4900924;29;20053;-65
2020/12/31 05:37:15;;;;;;;6.72;1.92;;;;;;;8.28;80.17;99426.00;4899100;29;20067;-65
2020/12/31 05:39:57;;;;;;;5.38;2.03;;;;;;;8.26;79.97;99439.22;4900550;29;20401;-65
2020/12/31 05:42:25;;;;;;;6.35;1.80;;;;;;;8.19;79.91;99436.97;4900401;29;20053;-65
2020/12/31 05:45:08;;;;;;;6.25;1.98;;;;;;;8.25;79.98;99446.66;4883510;29;20087;-66
2020/12/31 05:47:43;;;;;;;9.27;2.25;;;;;;;8.27;80.39;99443.56;4898632;29;20067;-65
2020/12/31 05:51:27;;;;;;;8.52;2.38;;;;;;;8.26;80.35;99451.00;4900459;29;20396;-66
2020/12/31 05:54:07;;;;;;;6.53;1.83;;;;;;;8.31;79.79;99441.78;4884045;29;20053;-66
2020/12/31 05:56:36;;;;;;;8.55;2.83;;;;;;;8.34;79.67;99452.91;4898954;29;20059;-66
2020/12/31 05:59:07;;;;;;;9.25;2.00;;;;;;;8.32;79.65;99463.41;4868117;29;20048;-64
2020/12/31 06:01:35;;;;;;;3.47;1.40;;;;;;;8.42;79.25;99459.50;4883144;29;20052;-62
2020/12/31 06:08:53;;;;;;;5.25;1.63;;;;;;;8.47;79.06;99454.59;4899825;29;20049;-65
2020/12/31 06:11:32;;;;;;;5.25;1.65;;;;;;;8.29;79.47;99458.56;4883361;29;20044;-65
2020/12/31 06:14:02;;;;;;;6.03;1.65;;;;;;;8.09;80.50;99458.47;4883577;29;20052;-67
2020/12/31 06:16:35;;;;;;;6.97;1.80;;;;;;;8.22;80.69;99455.50;4899075;29;20053;-65
2020/12/31 06:19:32;;;;;;;4.13;1.70;;;;;;;8.40;80.29;99464.50;4883484;29;20049;-65
2020/12/31 06:22:00;;;;;;;7.35;1.67;;;;;;;8.23;80.48;99467.28;4882819;29;20059;-66
2020/12/31 06:24:39;;;;;;;4.50;1.88;;;;;;;8.32;80.34;99471.63;4899555;29;20072;-65
2020/12/31 06:27:11;;;;;;;4.20;2.17;;;;;;;8.32;79.08;99471.63;4899448;29;20053;-67
2020/12/31 06:29:45;;;;;;;4.68;1.67;;;;;;;8.11;80.04;99472.66;4883136;29;20637;-64
2020/12/31 06:32:24;;;;;;;6.05;1.50;;;;;;;8.28;80.16;99472.63;4883328;29;20075;-66
2020/12/31 06:34:51;;;;;;;7.75;1.80;;;;;;;8.09;80.54;99472.97;4899513;29;20052;-66
2020/12/31 06:37:18;;;;;;;5.47;1.60;;;;;;;7.96;80.71;99465.75;4898516;29;20049;-65
2020/12/31 06:39:46;;;;;;;4.13;2.15;;;;;;;8.10;81.06;99477.31;4899586;29;20057;-65
2020/12/31 06:42:13;;;;;;;7.40;1.85;;;;;;;7.99;80.60;99476.88;4899257;29;20076;-64
2020/12/31 06:44:41;;;;;;;4.82;1.50;;;;;;;8.47;79.35;99470.28;4899093;29;20378;-65
2020/12/31 06:47:08;;;;;;;6.45;1.60;;;;;;;8.30;79.50;99481.34;4899429;29;20052;-65
2020/12/31 06:49:52;;;;;;;3.78;1.60;;;;;;;8.16;79.82;99478.75;4882921;29;20052;-64
2020/12/31 06:52:21;;;;;;;4.53;1.60;;;;;;;7.97;80.69;99492.84;4882637;29;20069;-66
2020/12/31 06:54:49;;;;;;;5.10;1.65;;;;;;;7.92;81.12;99493.00;4897897;29;20511;-64
2020/12/31 06:57:35;;;;;;;7.18;2.38;;;;;;;7.98;80.74;99482.69;4882039;29;20048;-65
2020/12/31 07:00:03;;;;;;;4.50;1.67;;;;;;;7.90;80.54;99487.03;4899224;29;20068;-65
2020/12/31 07:02:42;;;;;;;7.82;2.10;;;;;;;8.04;80.41;99484.09;4899096;29;20049;-66
2020/12/31 07:05:22;;;;;;;7.40;1.70;;;;;;;7.98;80.04;99493.66;4882174;29;20063;-64
2020/12/31 07:07:49;;;;;;;5.20;1.60;;;;;;;8.07;79.68;99497.19;4898973;29;20044;-63
2020/12/31 07:10:16;;;;;;;4.35;1.38;;;;;;;7.91;80.08;99504.31;4898760;29;20063;-63
2020/12/31 07:12:47;;;;;;;5.65;1.60;;;;;;;7.59;81.04;99508.38;4882209;29;20075;-65
2020/12/31 07:15:16;;;;;;;8.02;1.83;;;;;;;7.71;81.42;99508.53;4898764;29;20048;-64
2020/12/31 07:17:44;;;;;;;6.10;1.70;;;;;;;7.75;81.21;99517.72;4881798;29;20096;-65
2020/12/31 07:20:16;;;;;;;6.72;1.77;;;;;;;8.14;80.25;99516.69;4897353;29;20405;-64
2020/12/31 07:22:45;;;;;;;5.88;1.88;;;;;;;8.00;79.56;99518.81;4898504;29;20056;-64
2020/12/31 07:25:14;;;;;;;3.87;1.67;;;;;;;7.78;80.34;99521.72;4898377;29;20067;-65
2020/12/31 07:27:46;;;;;;;12.10;2.75;;;;;;;7.80;80.96;99527.69;4896215;29;20523;-66
2020/12/31 07:30:14;;;;;;;8.40;2.30;;;;;;;7.93;80.31;99534.94;4882232;29;20408;-65
2020/12/31 07:32:57;;;;;;;9.32;2.30;;;;;;;8.22;79.60;99535.06;4898796;29;20053;-66
2020/12/31 07:35:28;;;;;;;7.53;1.90;;;;;;;7.91;79.14;99553.66;4881502;29;20064;-66
2020/12/31 07:37:55;;;;;;;3.75;1.60;;;;;;;6.84;82.55;99551.75;4898587;29;20044;-67
2020/12/31 07:40:26;;;;;;;3.65;1.40;;;;;;;6.16;84.91;99568.63;4898611;29;20048;-66
2020/12/31 07:42:53;;;;;;;6.53;1.50;;;;;;;6.11;86.20;99573.41;4898323;29;20057;-64
2020/12/31 07:45:20;;;;;;;4.85;1.35;;;;;;;6.10;85.70;99572.59;4897781;29;20057;-65
2020/12/31 07:47:51;;;;;;;2.13;1.05;;;;;;;6.05;85.25;99574.69;4897996;29;20056;-66
2020/12/31 07:50:19;;;;;;;2.20;1.10;;;;;;;5.66;86.36;99597.16;4898123;29;20404;-66
2020/12/31 07:52:46;;;;;;;3.30;1.30;;;;;;;5.36;88.50;99611.50;4898066;29;20061;-65
2020/12/31 07:55:13;;;;;;;9.00;2.50;;;;;;;5.32;88.86;99591.38;4898263;29;20409;-65
2020/12/31 07:57:40;;;;;;;4.60;1.73;;;;;;;5.31;88.71;99617.06;4896275;29;20401;-66
2020/12/31 08:00:12;;;;;;;4.20;2.63;;;;;;;5.22;89.33;99624.34;4881684;29;20059;-66
2020/12/31 08:02:51;;;;;;;3.75;2.60;;;;;;;5.09;89.67;99603.34;4896758;29;20165;-65
2020/12/31 08:05:26;;;;;;;5.65;2.78;;;;;;;4.95;89.65;99625.16;4897734;29;20111;-66
2020/12/31 08:07:55;;;;;;;4.82;3.05;;;;;;;4.99;89.52;99628.09;4897610;29;20501;-65
2020/12/31 08:10:32;;;;;;;5.55;3.40;;;;;;;4.75;90.66;99622.03;4897901;29;20044;-66
2020/12/31 08:13:05;;;;;;;4.50;2.97;;;;;;;4.80;89.43;99660.94;4897346;29;20067;-66
2020/12/31 08:15:32;;;;;;;5.18;3.10;;;;;;;4.79;89.04;99640.22;4880591;29;20057;-67
2020/12/31 08:18:03;;;;;;;5.70;3.50;;;;;;;4.72;89.93;99639.81;4897133;29;20052;-66
2020/12/31 08:20:37;;;;;;;5.35;3.72;;;;;;;4.59;89.46;99646.84;4897472;29;20064;-66
2020/12/31 08:23:05;;;;;;;5.72;3.75;;;;;;;4.70;89.16;99643.94;4897311;29;20057;-67
2020/12/31 08:25:40;;;;;;;7.60;3.80;;;;;;;4.62;88.63;99648.16;4896994;29;20056;-65
2020/12/31 08:28:07;;;;;;;5.80;3.92;;;;;;;4.67;88.28;99648.09;4897878;29;20061;-65
2020/12/31 08:30:36;;;;;;;7.15;4.13;;;;;;;4.87;87.53;99660.53;4897174;29;20450;-65
2020/12/31 08:33:07;;;;;;;6.07;3.70;;;;;;;4.66;87.92;99664.72;4897452;29;20061;-66
2020/12/31 08:35:44;;;;;;;5.60;3.90;;;;;;;4.31;87.93;99675.16;4895872;29;20067;-65
2020/12/31 08:38:19;;;;;;;5.45;3.30;;;;;;;4.38;85.88;99683.75;4897120;29;20048;-64
2020/12/31 08:40:53;;;;;;;5.35;3.40;;;;;;;4.30;86.63;99665.38;4897446;29;20067;-65
2020/12/31 08:43:22;;;;;;;6.13;3.83;;;;;;;4.61;85.60;99682.00;4880773;29;20056;-67
2020/12/31 08:45:51;;;;;;;8.63;3.80;;;;;;;4.56;85.17;99696.53;4896508;29;20061;-66
2020/12/31 08:52:44;;;;;;;10.75;4.10;;;;;;;4.25;84.95;99706.31;4895995;29;20059;-66
2020/12/31 08:55:12;;;;;;;6.20;4.38;;;;;;;4.13;85.49;99708.69;4896931;29;20056;-65
2020/12/31 08:57:39;;;;;;;6.55;4.10;;;;;;;4.10;85.17;99712.00;4895514;29;20405;-66
2020/12/31 09:00:07;;;;;;;6.40;4.32;;;;;;;4.18;84.18;99716.81;4896527;29;20063;-66
2020/12/31 09:02:34;;;;;;;6.68;4.30;;;;;;;3.92;85.16;99721.00;4895410;29;20057;-66
2020/12/31 09:05:14;;;;;;;6.60;4.50;;;;;;;4.29;84.68;99728.31;4894899;29;20057;-67
2020/12/31 09:07:42;;;;;;;7.68;4.60;;;;;;;3.95;84.03;99730.47;4896992;29;20454;-67
2020/12/31 09:10:17;;;;;;;7.32;5.07;;;;;;;3.96;85.00;99730.19;4896427;29;20545;-66
2020/12/31 09:12:44;;;;;;;7.65;5.70;;;;;;;3.81;84.47;99732.31;4896909;29;20064;-66
2020/12/31 09:15:19;;;;;;;7.20;5.00;;;;;;;3.85;85.45;99730.63;4880487;29;20060;-65
2020/12/31 09:17:46;;;;;;;8.88;5.45;;;;;;;3.92;84.78;99737.34;4897251;29;20547;-65
2020/12/31 09:20:18;;;;;;;10.30;5.90;;;;;;;3.63;84.93;99742.06;4897034;29;20493;-65
2020/12/31 09:22:46;;;;;;;13.35;6.00;;;;;;;3.66;84.90;99749.66;4897002;29;20496;-67
2020/12/31 09:25:13;;;;;;;7.93;5.35;;;;;;;3.68;85.17;99749.38;4895574;29;20053;-68
2020/12/31 09:27:45;;;;;;;9.05;5.80;;;;;;;3.73;85.20;99750.09;4864801;29;20056;-65
2020/12/31 09:30:14;;;;;;;8.50;5.47;;;;;;;4.07;84.97;99748.03;4895812;29;20115;-68
2020/12/31 09:32:44;;;;;;;10.57;6.10;;;;;;;4.05;83.84;99761.13;4896150;29;20377;-65
2020/12/31 09:35:12;;;;;;;9.27;6.20;;;;;;;3.92;84.22;99770.03;4897022;29;20312;-63
2020/12/31 09:37:50;;;;;;;9.55;6.45;;;;;;;4.15;83.91;99758.25;4896639;29;20543;-67
2020/12/31 09:40:17;;;;;;;9.75;6.78;;;;;;;4.01;83.53;99770.19;4896935;29;20057;-66
2020/12/31 09:42:45;;;;;;;8.82;6.18;;;;;;;4.21;83.22;99762.53;4895355;29;20052;-68
2020/12/31 09:45:13;;;;;;;8.80;6.18;;;;;;;4.11;83.09;99772.75;4896925;29;20057;-68
2020/12/31 09:47:41;;;;;;;8.38;5.97;;;;;;;4.01;82.16;99790.03;4880204;29;20068;-66
2020/12/31 09:50:09;;;;;;;8.93;6.10;;;;;;;3.73;83.15;99771.88;4895591;29;20404;-67
2020/12/31 09:52:38;;;;;;;9.15;5.80;;;;;;;3.56;83.28;99789.84;4882800;29;20052;-68
2020/12/31 09:55:24;;;;;;;9.93;6.53;;;;;;;3.60;83.49;99777.25;4899784;29;20060;-68
2020/12/31 09:57:51;;;;;;;9.52;6.47;;;;;;;3.65;83.56;99780.72;4882837;29;20054;-66
2020/12/31 10:00:18;;;;;;;11.70;6.90;;;;;;;3.86;83.30;99778.53;4894408;29;20440;-65
2020/12/31 10:02:46;;;;;;;9.48;6.68;;;;;;;4.14;82.97;99783.88;4896998;29;20493;-66
2020/12/31 10:05:13;;;;;;;10.60;6.30;;;;;;;4.16;81.69;99795.31;4898380;29;20410;-67
2020/12/31 10:07:41;;;;;;;13.93;5.88;;;;;;;4.29;79.81;99797.28;4898063;29;20071;-66
2020/12/31 10:10:08;;;;;;;9.25;5.75;;;;;;;4.00;80.37;99804.78;4878952;29;20203;-64
2020/12/31 10:12:35;;;;;;;11.40;6.63;;;;;;;3.83;81.09;99809.91;4895870;29;20053;-66
2020/12/31 10:15:02;;;;;;;11.43;6.97;;;;;;;3.92;80.69;99807.34;4892877;29;20063;-65
2020/12/31 10:17:29;;;;;;;10.40;6.53;;;;;;;4.09;80.11;99813.13;4878398;29;20048;-65
2020/12/31 10:19:57;;;;;;;9.80;5.90;;;;;;;4.14;79.67;99800.25;4880963;29;20510;-67
2020/12/31 10:22:24;;;;;;;9.07;6.18;;;;;;;4.63;78.99;99809.88;4898430;29;20060;-65
2020/12/31 10:24:51;;;;;;;11.32;7.22;;;;;;;4.50;78.45;99806.78;4890455;29;20382;-65
2020/12/31 10:27:18;;;;;;;9.25;5.85;;;;;;;4.03;78.46;99800.66;4897747;29;20501;-65
2020/12/31 10:29:45;;;;;;;11.55;6.70;;;;;;;4.09;79.49;99804.94;4898251;29;20040;-65
2020/12/31 10:32:12;;;;;;;10.57;6.05;;;;;;;4.37;79.24;99802.09;4878319;29;20053;-65
2020/12/31 10:34:38;;;;;;;9.82;5.53;;;;;;;4.08;79.53;99806.84;4896540;29;20420;-63
2020/12/31 10:37:05;;;;;;;7.93;5.43;;;;;;;4.18;79.48;99797.75;4892983;29;20053;-64
2020/12/31 10:39:32;;;;;;;8.70;5.68;;;;;;;4.32;79.56;99795.91;4878081;29;20056;-65
2020/12/31 10:42:00;;;;;;;9.32;6.15;;;;;;;4.17;79.39;99801.56;4898617;29;20060;-67
2020/12/31 10:44:26;;;;;;;9.25;6.10;;;;;;;4.27;79.62;99801.44;4897602;29;20059;-68
2020/12/31 10:46:56;;;;;;;11.18;6.20;;;;;;;4.25;80.19;99800.91;4896984;29;20044;-67
2020/12/31 10:49:23;;;;;;;10.73;6.53;;;;;;;4.26;80.16;99803.34;4897695;29;20048;-63
2020/12/31 10:51:51;;;;;;;9.82;6.55;;;;;;;4.61;79.26;99802.00;4895866;29;20527;-65
2020/12/31 10:54:18;;;;;;;9.70;5.95;;;;;;;4.41;78.47;99802.31;4876535;29;20053;-67
2020/12/31 10:56:45;;;;;;;10.27;6.70;;;;;;;4.16;79.53;99808.13;4880604;29;20079;-65
2020/12/31 10:59:11;;;;;;;9.38;6.35;;;;;;;4.17;80.06;99807.81;4898094;29;20374;-65
2020/12/31 11:01:38;;;;;;;9.65;6.45;;;;;;;4.28;79.39;99812.03;4897429;29;20057;-64
2020/12/31 11:04:05;;;;;;;11.27;7.28;;;;;;;4.35;79.33;99804.31;4895904;29;20048;-68
2020/12/31 11:06:32;;;;;;;23.00;13.88;;;;;;;4.53;79.15;99803.47;4896545;29;20053;-65
2020/12/31 11:09:04;;;;;;;10.45;6.82;;;;;;;4.71;78.73;99801.81;4897114;29;20064;-68
2020/12/31 11:11:31;;;;;;;12.88;6.90;;;;;;;4.87;77.77;99799.66;4897486;29;20063;-65
2020/12/31 11:13:58;;;;;;;10.40;6.45;;;;;;;4.57;78.15;99801.78;4896638;29;20052;-65
2020/12/31 11:16:25;;;;;;;9.65;6.35;;;;;;;4.59;78.14;99813.22;4863477;29;20053;-67
2020/12/31 11:18:52;;;;;;;10.00;6.78;;;;;;;4.52;78.22;99806.50;4899001;29;20045;-64
2020/12/31 11:25:48;;;;;;;9.85;6.35;;;;;;;4.60;79.08;99811.28;4896699;29;20404;-66
2020/12/31 11:28:14;;;;;;;9.20;5.97;;;;;;;4.46;78.55;99803.03;4897777;29;20052;-68
2020/12/31 11:30:43;;;;;;;11.43;6.38;;;;;;;4.40;78.77;99803.41;4880477;29;20057;-67
2020/12/31 11:33:10;;;;;;;9.27;6.03;;;;;;;4.56;78.25;99797.44;4865580;29;20124;-66
2020/12/31 11:40:07;;;;;;;9.57;6.05;;;;;;;4.22;79.25;99790.59;4877557;29;20053;-66
2020/12/31 11:42:36;;;;;;;9.05;6.00;;;;;;;4.29;78.57;99797.28;4896970;29;20048;-66
2020/12/31 11:45:06;;;;;;;8.65;5.82;;;;;;;4.61;78.51;99799.28;4897992;29;20056;-68
2020/12/31 11:47:33;;;;;;;10.05;6.03;;;;;;;4.77;77.75;99795.19;4897557;29;20134;-67
2020/12/31 11:54:26;;;;;;;7.93;4.70;;;;;;;4.78;74.87;99793.28;4898110;29;20052;-66
2020/12/31 11:56:53;;;;;;;8.52;4.65;;;;;;;4.71;75.69;99795.59;4893419;29;20057;-67
2020/12/31 11:59:20;;;;;;;8.57;4.95;;;;;;;5.07;74.65;99793.88;4893559;29;20068;-67
2020/12/31 12:01:51;;;;;;;8.73;5.35;;;;;;;5.24;73.91;99789.47;4898016;29;20049;-68
2020/12/31 12:08:48;;;;;;;7.63;4.78;;;;;;;5.07;73.87;99791.97;4897864;29;20044;-67
2020/12/31 12:11:16;;;;;;;8.63;4.80;;;;;;;4.76;74.36;99788.09;4898064;29;20056;-67
2020/12/31 12:13:42;;;;;;;8.23;4.60;;;;;;;4.99;74.26;99783.63;4897264;29;20045;-66
2020/12/31 12:16:09;;;;;;;7.72;4.47;;;;;;;5.17;73.30;99790.97;4897867;29;20056;-65
2020/12/31 12:18:36;;;;;;;8.35;5.07;;;;;;;5.27;72.83;99791.59;4879045;29;20064;-64
2020/12/31 12:25:39;;;;;;;12.77;5.45;;;;;;;5.12;74.65;99788.31;4897522;29;20048;-65
2020/12/31 12:28:06;;;;;;;9.07;5.55;;;;;;;5.20;74.63;99791.16;4897607;29;20056;-65
2020/12/31 12:30:33;;;;;;;9.65;5.53;;;;;;;4.92;75.25;99800.41;4877934;29;20104;-66
2020/12/31 12:33:00;;;;;;;9.68;5.15;;;;;;;4.93;75.41;99796.56;4897545;29;20059;-65
2020/12/31 12:39:50;;;;;;;8.90;5.35;;;;;;;4.97;75.52;99792.13;4897629;29;20052;-66
2020/12/31 12:42:17;;;;;;;10.55;5.18;;;;;;;5.25;73.52;99801.19;4862236;29;20053;-66